Web Počasí Slunečno.cz™ (Podmínky, ePrivacy) používá cookies a personalizace pro reklamní účely. Pohybem po stránce vyjadřujete souhlas. Odejít

Aktuální počasí v Česku a ve světě - METAR

Seznam meteostanic umístěných nejčasteji na letišti v ČR a ve světě

Vyhledat místa podle abecedy:
A B C D E F G H I J K L M N O P Q R S T U V W X Y Z

Filtrovat:

ID stanice:
a/nebo
Název místa (fulltext):
 
Místo (ID)Naposledy načteno 
Temelín (Temelin) 26.10.2021 15:00 UTC Zobrazit data
Místo: Temelín
Teplota: 11 °C (pocitová: 6.2 °C)
Vítr: 5 m/s z(e) 310°
Počasí: oblačno
Dohlednost: 40 km
Zákl. oblačnosti: 2/8 1320 m
Vlhkost: 72%
Tahiti (NTAA) 26.10.2021 16:00 UTC Zobrazit METAR
NTAA 261600Z 18006KT 9999 FEW020 BKN160 23/21 Q1014 NOSIG
Taipei (RCTP) 26.10.2021 16:00 UTC Zobrazit METAR
RCTP 261600Z 06008KT 9999 FEW020 BKN090 23/19 Q1017 NOSIG RMK A3004
Taipei (RCSS) 26.10.2021 16:00 UTC Zobrazit METAR
RCSS 261600Z 10012KT 9999 FEW020 SCT060 BKN090 23/16 Q1017 NOSIG RMK A3005
Tallinn (EETN) 26.10.2021 15:50 UTC Zobrazit METAR
EETN 261550Z 21007KT 9000 -RA OVC007 08/07 Q1008 TEMPO 5000 RA BKN005
Tampere (EFTP) 26.10.2021 15:50 UTC Zobrazit METAR
EFTP 261550Z AUTO 23010KT 9999 OVC005 08/07 Q1004
Tarawa I (NGTA) 26.10.2021 16:00 UTC Zobrazit METAR
NGTA 261600Z 09004KT 9999 FEW019 27/23 Q1009
Targu Mures (LRTM) 26.10.2021 16:00 UTC Zobrazit METAR
LRTM 261600Z 00000KT CAVOK 05/01 Q1023
Tartu (EETU) 26.10.2021 15:50 UTC Zobrazit METAR
EETU 261550Z AUTO 20009KT 9999 OVC032/// 07/04 Q1011
Tashkent (UTTT) 26.10.2021 16:00 UTC Zobrazit METAR
UTTT 261600Z 13002KT 4000 FU NSC 16/03 Q1022 R08R/CLRD70 NOSIG
Tbilisi (UGGG) Zatím nenačteno  
Tegucigalpa (MHTG) 26.10.2021 16:00 UTC Zobrazit METAR
MHTG 261600Z VRB03KT 9999 SCT030 27/18 Q1022 A3018 NOSIG
Tehran (OIII) 26.10.2021 16:00 UTC Zobrazit METAR
OIII 261600Z 31004KT 9999 FEW040 BKN200 18/M05 Q1021 A3015 NOSIG
Tel Aviv (LLBG) 26.10.2021 15:50 UTC Zobrazit METAR
LLBG 261550Z 34008KT CAVOK 24/16 Q1015 NOSIG
Tenerife (GCTS) 26.10.2021 16:00 UTC Zobrazit METAR
GCTS 261600Z 08014KT 9999 FEW045 SCT051 24/16 Q1018 NOSIG
Thessaloniki (LGTS) 26.10.2021 15:50 UTC Zobrazit METAR
LGTS 261550Z 19004KT CAVOK 14/04 Q1024 NOSIG
Thule (BGTL) 26.10.2021 15:56 UTC Zobrazit METAR
BGTL 261556Z AUTO 16031G38KT 9999 BKN060 BKN090 M06/M06 A2970 RMK AO2 PK WND 16045/40 SLP045 T10611062 TSNO $
Timisoara (LRTR) 26.10.2021 16:00 UTC Zobrazit METAR
LRTR 261600Z 31003KT CAVOK 11/01 Q1023
Tirana (LATI) 26.10.2021 15:50 UTC Zobrazit METAR
LATI 261550Z 31004KT CAVOK 15/04 Q1018 NOSIG
Tokyo (RJTT) 26.10.2021 16:00 UTC Zobrazit METAR
RJTT 261600Z 11005KT 9999 FEW020 16/14 Q1016 NOSIG
Torp (ENTO) 26.10.2021 15:50 UTC Zobrazit METAR
ENTO 261550Z 21004KT CAVOK 09/02 Q1008 NOSIG
Toulouse (LFBO) 26.10.2021 16:00 UTC Zobrazit METAR
LFBO 261600Z AUTO 34006KT 320V020 CAVOK 18/11 Q1024 NOSIG
Tripoli (HLLT) 13.07.2014 03:50 UTC Zobrazit METAR
HLLT 130350Z 11009KT CAVOK 24/15 Q1015
Trondheim (ENVA) 26.10.2021 15:50 UTC Zobrazit METAR
ENVA 261550Z 10005KT 9999 FEW046 05/04 Q1003 NOSIG RMK WIND 670FT 20011KT
Tunis (DTTA) 26.10.2021 06:00 UTC Zobrazit METAR
DTTA 260600Z 31012KT 9999 SCT020 SCT026 19/17 Q1016
Turku (EFTU) 26.10.2021 15:50 UTC Zobrazit METAR
EFTU 261550Z AUTO 24008KT 9999 OVC005 08/08 Q1005
Reklama

Reklama


Newslettter

Počasí na Váš email

Každý den Vám pošleme předpověď
Emaily chodí ráno a bez reklamy



Odhlásit newsletter


Další české internetové stránky o počasí najdete v katalogu TOPlist - weby o počasí nebo vyhledejte na internetu, co jste tu na Počasí Slunečno Slunečnu zatím nenašli:
Reklama